Time;durP1;ratioP1;P1;durP2;ratioP2;P2;SDS_P1;SDS_P2;PMS_P1;PMS_P2;Temp;Humidity;BMP_temperature;BMP_pressure;BME280_temperature;BME280_humidity;BME280_pressure;Samples;Min_cycle;Max_cycle;Signal;HPM_P1;HPM_P2
2022/03/03 00:01:32;;;;;;;0.00;0.00;;;8.50;63.90;;;;;;4118476;28;20050;-77
2022/03/03 00:03:56;;;;;;;0.00;0.00;;;8.50;63.70;;;;;;4105269;28;20070;-78
2022/03/03 00:06:21;;;;;;;0.00;0.00;;;8.40;63.70;;;;;;4116932;28;20070;-74
2022/03/03 00:08:43;;;;;;;0.00;0.00;;;8.30;63.90;;;;;;4118127;28;20064;-75
2022/03/03 00:11:15;;;;;;;0.00;0.00;;;8.40;64.00;;;;;;4131711;28;20388;-78
2022/03/03 00:13:43;;;;;;;0.00;0.00;;;8.40;63.80;;;;;;4131665;28;20056;-77
2022/03/03 00:16:05;;;;;;;0.00;0.00;;;8.40;63.90;;;;;;4102096;28;20097;-74
2022/03/03 00:18:28;;;;;;;0.00;0.00;;;8.40;64.10;;;;;;4104934;28;20057;-78
2022/03/03 00:20:52;;;;;;;0.00;0.00;;;8.40;63.90;;;;;;4104708;28;20065;-74
2022/03/03 00:23:14;;;;;;;0.00;0.00;;;8.50;63.60;;;;;;4117535;28;20133;-75
2022/03/03 00:25:41;;;;;;;0.00;0.00;;;8.60;63.30;;;;;;4131009;28;20050;-76
2022/03/03 00:28:04;;;;;;;0.00;0.00;;;8.70;63.40;;;;;;4117652;28;20053;-76
2022/03/03 00:30:26;;;;;;;0.00;0.00;;;8.70;63.40;;;;;;4116876;28;20102;-75
2022/03/03 00:32:53;;;;;;;0.00;0.00;;;8.70;63.60;;;;;;4121110;28;20086;-74
2022/03/03 00:35:18;;;;;;;0.00;0.00;;;8.70;63.60;;;;;;4117773;28;20450;-78
2022/03/03 00:37:40;;;;;;;0.00;0.00;;;8.70;63.60;;;;;;4131009;28;20051;-74
2022/03/03 00:40:06;;;;;;;0.00;0.00;;;8.70;63.50;;;;;;4130975;28;20054;-77
2022/03/03 00:42:32;;;;;;;0.00;0.00;;;8.70;63.50;;;;;;4130769;28;20035;-74
2022/03/03 00:44:56;;;;;;;0.00;0.00;;;8.60;63.70;;;;;;4120319;28;20069;-75
2022/03/03 00:47:19;;;;;;;0.00;0.00;;;8.60;63.80;;;;;;4120238;28;20216;-77
2022/03/03 00:49:46;;;;;;;0.00;0.00;;;8.60;63.90;;;;;;4120538;28;20056;-74
2022/03/03 00:52:14;;;;;;;0.00;0.00;;;8.50;63.90;;;;;;4117890;28;20054;-75
2022/03/03 00:54:36;;;;;;;0.00;0.00;;;8.50;64.20;;;;;;4133308;28;20112;-76
2022/03/03 00:57:01;;;;;;;0.00;0.00;;;8.50;64.10;;;;;;4120075;28;20102;-76
2022/03/03 00:59:23;;;;;;;0.00;0.00;;;8.50;64.10;;;;;;4133976;28;20090;-79
2022/03/03 01:01:47;;;;;;;0.00;0.00;;;8.50;64.00;;;;;;4120449;28;20115;-75
2022/03/03 01:04:11;;;;;;;0.00;0.00;;;8.50;64.00;;;;;;4133525;28;20058;-75
2022/03/03 01:06:34;;;;;;;0.00;0.00;;;8.40;64.20;;;;;;4133340;28;20448;-76
2022/03/03 01:08:58;;;;;;;0.00;0.00;;;8.40;64.40;;;;;;4134201;28;20058;-77
2022/03/03 01:11:26;;;;;;;0.00;0.00;;;8.30;64.30;;;;;;4134191;28;20073;-74
2022/03/03 01:13:51;;;;;;;0.00;0.00;;;8.30;64.50;;;;;;4120122;28;20058;-74
2022/03/03 01:16:16;;;;;;;0.00;0.00;;;8.30;64.50;;;;;;4132755;28;20062;-75
2022/03/03 01:18:50;;;;;;;0.00;0.00;;;8.30;64.50;;;;;;4134372;28;20116;-77
2022/03/03 01:21:15;;;;;;;0.00;0.00;;;8.30;64.40;;;;;;4133302;28;20421;-77
2022/03/03 01:23:53;;;;;;;0.00;0.00;;;8.20;64.30;;;;;;4133490;28;20046;-76
2022/03/03 01:26:22;;;;;;;0.00;0.00;;;8.20;64.20;;;;;;4118381;28;20584;-75
2022/03/03 01:29:04;;;;;;;0.00;0.00;;;8.20;64.20;;;;;;4134023;28;20053;-74
2022/03/03 01:31:31;;;;;;;0.00;0.00;;;8.20;64.30;;;;;;4133015;28;20075;-74
2022/03/03 01:34:06;;;;;;;0.00;0.00;;;8.20;64.30;;;;;;4133147;28;20053;-80
2022/03/03 01:36:38;;;;;;;0.00;0.00;;;8.20;64.30;;;;;;4120344;28;20042;-75
2022/03/03 01:39:06;;;;;;;0.00;0.00;;;8.20;64.50;;;;;;4133041;28;20066;-75
2022/03/03 01:41:29;;;;;;;0.00;0.00;;;8.20;64.80;;;;;;4133753;28;20046;-75
2022/03/03 01:44:15;;;;;;;0.00;0.00;;;8.10;65.00;;;;;;4120247;28;20364;-75
2022/03/03 01:46:52;;;;;;;0.00;0.00;;;8.10;65.50;;;;;;4132762;28;20048;-78
2022/03/03 01:49:28;;;;;;;0.00;0.00;;;8.10;65.90;;;;;;4121267;28;20112;-77
2022/03/03 01:52:08;;;;;;;0.00;0.00;;;8.00;66.10;;;;;;4132758;28;20065;-75
2022/03/03 01:54:45;;;;;;;0.00;0.00;;;8.00;66.40;;;;;;4132223;28;20046;-76
2022/03/03 01:57:22;;;;;;;0.00;0.00;;;8.00;66.70;;;;;;4132383;28;20057;-75
2022/03/03 02:00:07;;;;;;;0.00;0.00;;;8.00;66.80;;;;;;4133297;28;20500;-76
2022/03/03 02:02:50;;;;;;;0.00;0.00;;;7.90;66.90;;;;;;4121601;28;20046;-76
2022/03/03 02:08:23;;;;;;;0.00;0.00;;;7.90;67.30;;;;;;4132523;28;20074;-77
2022/03/03 02:10:55;;;;;;;0.00;0.00;;;7.90;67.50;;;;;;4133123;28;20075;-77
2022/03/03 02:13:36;;;;;;;0.00;0.00;;;7.80;67.70;;;;;;4121660;28;20054;-80
2022/03/03 02:16:12;;;;;;;0.00;0.00;;;7.70;68.20;;;;;;4133420;28;20125;-75
2022/03/03 02:18:48;;;;;;;0.00;0.00;;;7.60;68.60;;;;;;4133098;28;20428;-75
2022/03/03 02:21:17;;;;;;;0.00;0.00;;;7.60;68.70;;;;;;4133832;28;20504;-77
2022/03/03 02:23:43;;;;;;;0.00;0.00;;;7.60;68.80;;;;;;4133267;28;20054;-79
2022/03/03 02:26:22;;;;;;;0.00;0.00;;;7.60;68.80;;;;;;4106862;28;20046;-76
2022/03/03 02:28:53;;;;;;;0.00;0.00;;;7.70;68.80;;;;;;4105263;28;20061;-78
2022/03/03 02:31:18;;;;;;;0.00;0.00;;;7.70;68.80;;;;;;4132198;28;20047;-75
2022/03/03 02:33:41;;;;;;;0.00;0.00;;;7.70;68.80;;;;;;4132122;28;20050;-76
2022/03/03 02:36:21;;;;;;;0.00;0.00;;;7.70;68.80;;;;;;4105333;28;20047;-75
2022/03/03 02:38:43;;;;;;;0.00;0.00;;;7.60;69.50;;;;;;4132100;28;20104;-76
2022/03/03 02:41:05;;;;;;;0.00;0.00;;;7.50;69.80;;;;;;4132656;28;20046;-75
2022/03/03 02:43:27;;;;;;;0.00;0.00;;;7.50;70.00;;;;;;4119248;28;20098;-74
2022/03/03 02:45:52;;;;;;;0.00;0.00;;;7.50;69.90;;;;;;4119953;28;20050;-76
2022/03/03 02:48:19;;;;;;;0.00;0.00;;;7.50;69.80;;;;;;4117296;28;20046;-75
2022/03/03 02:50:41;;;;;;;0.00;0.00;;;7.50;69.60;;;;;;4118737;28;20114;-76
2022/03/03 02:53:05;;;;;;;0.00;0.00;;;7.50;69.50;;;;;;4132260;28;20046;-75
2022/03/03 02:55:28;;;;;;;0.00;0.00;;;7.50;69.20;;;;;;4118093;28;20120;-78
2022/03/03 02:57:55;;;;;;;0.00;0.00;;;7.50;69.00;;;;;;4132234;28;20050;-74
2022/03/03 03:00:19;;;;;;;0.00;0.00;;;7.50;68.80;;;;;;4118617;28;20370;-77
2022/03/03 03:02:46;;;;;;;0.00;0.00;;;7.50;68.80;;;;;;4120786;28;20161;-74
2022/03/03 03:05:09;;;;;;;0.00;0.00;;;7.40;68.90;;;;;;4118824;28;20058;-76
2022/03/03 03:07:32;;;;;;;0.00;0.00;;;7.40;69.00;;;;;;4132155;28;20077;-74
2022/03/03 03:09:54;;;;;;;0.00;0.00;;;7.40;69.00;;;;;;4118596;28;20134;-76
2022/03/03 03:12:20;;;;;;;0.00;0.00;;;7.40;69.20;;;;;;4117607;28;20074;-74
2022/03/03 03:14:42;;;;;;;0.00;0.00;;;7.40;69.40;;;;;;4131737;28;20129;-74
2022/03/03 03:17:07;;;;;;;0.00;0.00;;;7.40;69.30;;;;;;4131697;28;20053;-76
2022/03/03 03:19:31;;;;;;;0.00;0.00;;;7.40;69.20;;;;;;4131548;28;20519;-76
2022/03/03 03:21:53;;;;;;;0.00;0.00;;;7.40;69.40;;;;;;4131564;28;20042;-76
2022/03/03 03:24:20;;;;;;;0.00;0.00;;;7.40;69.60;;;;;;4116888;28;20385;-76
2022/03/03 03:26:54;;;;;;;0.00;0.00;;;7.40;69.80;;;;;;4131566;28;20034;-74
2022/03/03 03:29:18;;;;;;;0.00;0.00;;;7.30;70.20;;;;;;4131255;28;20050;-76
2022/03/03 03:31:43;;;;;;;0.00;0.00;;;7.20;70.50;;;;;;4118062;28;20086;-76
2022/03/03 03:34:07;;;;;;;0.00;0.00;;;7.20;70.90;;;;;;4117638;28;20079;-74
2022/03/03 03:36:32;;;;;;;0.00;0.00;;;7.20;70.90;;;;;;4118508;28;20105;-75
2022/03/03 03:38:54;;;;;;;0.00;0.00;;;7.30;71.00;;;;;;4117882;28;20432;-76
2022/03/03 03:41:16;;;;;;;0.00;0.00;;;7.30;71.20;;;;;;4117769;28;20046;-76
2022/03/03 03:43:38;;;;;;;0.00;0.00;;;7.30;71.30;;;;;;4117759;28;20054;-75
2022/03/03 03:46:03;;;;;;;0.00;0.00;;;7.30;71.60;;;;;;4131338;28;20042;-75
2022/03/03 03:48:25;;;;;;;0.00;0.00;;;7.30;71.80;;;;;;4130772;28;20133;-74
2022/03/03 03:50:49;;;;;;;0.00;0.00;;;7.30;72.00;;;;;;4117792;28;20164;-77
2022/03/03 03:53:11;;;;;;;0.00;0.00;;;7.20;72.10;;;;;;4131368;28;20133;-79
2022/03/03 03:55:33;;;;;;;0.00;0.00;;;7.10;72.30;;;;;;4131124;28;20422;-77
2022/03/03 03:57:57;;;;;;;0.00;0.00;;;7.10;72.40;;;;;;4117951;28;20047;-74
2022/03/03 04:00:19;;;;;;;0.00;0.00;;;7.10;72.30;;;;;;4130837;28;20094;-76
2022/03/03 04:02:56;;;;;;;0.00;0.00;;;7.10;72.50;;;;;;4117771;28;20057;-76
2022/03/03 04:05:27;;;;;;;0.00;0.00;;;7.00;72.70;;;;;;4104625;28;20379;-76
2022/03/03 04:07:49;;;;;;;0.00;0.00;;;6.80;73.20;;;;;;4117484;28;20101;-75
2022/03/03 04:10:16;;;;;;;0.00;0.00;;;6.80;73.90;;;;;;4115876;28;20496;-76
2022/03/03 04:12:41;;;;;;;0.00;0.00;;;6.90;73.30;;;;;;4117482;28;20035;-78
2022/03/03 04:15:06;;;;;;;0.00;0.00;;;7.00;73.30;;;;;;4131152;28;20074;-74
2022/03/03 04:17:28;;;;;;;0.00;0.00;;;7.00;73.40;;;;;;4117843;28;20054;-75
2022/03/03 04:19:53;;;;;;;0.00;0.00;;;7.00;73.10;;;;;;4133385;28;20046;-75
2022/03/03 04:22:15;;;;;;;0.00;0.00;;;7.10;72.70;;;;;;4120425;28;20437;-76
2022/03/03 04:24:37;;;;;;;0.00;0.00;;;7.10;72.30;;;;;;4122348;28;20050;-76
2022/03/03 04:26:59;;;;;;;0.00;0.00;;;7.10;71.80;;;;;;4120678;28;20042;-77
2022/03/03 04:29:21;;;;;;;0.00;0.00;;;7.00;71.30;;;;;;4120554;28;20047;-75
2022/03/03 04:31:51;;;;;;;0.00;0.00;;;6.90;71.30;;;;;;4120803;28;20054;-77
2022/03/03 04:34:15;;;;;;;0.00;0.00;;;6.80;71.40;;;;;;4120036;28;20126;-76
2022/03/03 04:36:39;;;;;;;0.00;0.00;;;6.90;70.90;;;;;;4107212;28;20449;-73
2022/03/03 04:39:01;;;;;;;0.00;0.00;;;7.00;70.60;;;;;;4134117;28;20128;-75
2022/03/03 04:41:24;;;;;;;0.00;0.00;;;7.00;70.40;;;;;;4133913;28;20473;-76
2022/03/03 04:43:46;;;;;;;0.00;0.00;;;7.00;70.80;;;;;;4120510;28;20046;-75
2022/03/03 04:46:10;;;;;;;0.00;0.00;;;7.00;70.10;;;;;;4117745;28;20054;-76
2022/03/03 04:48:33;;;;;;;0.00;0.00;;;7.00;70.00;;;;;;4133672;28;20086;-75
2022/03/03 04:50:59;;;;;;;0.00;0.00;;;6.90;70.10;;;;;;4120366;28;20056;-79
2022/03/03 04:53:26;;;;;;;0.00;0.00;;;7.00;70.20;;;;;;4120438;28;20466;-78
2022/03/03 04:55:48;;;;;;;0.00;0.00;;;6.90;70.40;;;;;;4106537;28;20058;-74
2022/03/03 04:58:13;;;;;;;0.00;0.00;;;6.90;70.50;;;;;;4133998;28;20433;-76
2022/03/03 05:00:35;;;;;;;0.00;0.00;;;6.80;71.00;;;;;;4134426;28;20046;-76
2022/03/03 05:03:01;;;;;;;0.00;0.00;;;6.80;71.20;;;;;;4120675;28;20058;-77
2022/03/03 05:05:27;;;;;;;0.00;0.00;;;6.80;71.20;;;;;;4134483;28;20046;-77
2022/03/03 05:07:49;;;;;;;0.00;0.00;;;6.70;71.50;;;;;;4134171;28;20054;-78
2022/03/03 05:10:11;;;;;;;0.00;0.00;;;6.70;71.70;;;;;;4118618;28;20096;-75
2022/03/03 05:12:40;;;;;;;0.00;0.00;;;6.60;71.90;;;;;;4134102;28;20058;-75
2022/03/03 05:15:10;;;;;;;0.00;0.00;;;6.60;72.10;;;;;;4134219;28;20085;-76
2022/03/03 05:17:32;;;;;;;0.00;0.00;;;6.60;72.30;;;;;;4107072;28;20094;-75
2022/03/03 05:19:57;;;;;;;0.00;0.00;;;6.60;72.30;;;;;;4120387;28;20055;-77
2022/03/03 05:22:24;;;;;;;0.00;0.00;;;6.60;72.30;;;;;;4119738;28;20118;-76
2022/03/03 05:24:53;;;;;;;0.00;0.00;;;6.50;72.60;;;;;;4134027;28;20085;-74
2022/03/03 05:27:16;;;;;;;0.00;0.00;;;6.50;72.80;;;;;;4120402;28;20042;-76
2022/03/03 05:29:42;;;;;;;0.00;0.00;;;6.50;72.80;;;;;;4117560;28;20138;-79
2022/03/03 05:32:09;;;;;;;0.00;0.00;;;6.50;72.80;;;;;;4133287;28;20058;-78
2022/03/03 05:34:33;;;;;;;0.00;0.00;;;6.60;73.00;;;;;;4133392;28;20370;-75
2022/03/03 05:37:04;;;;;;;0.00;0.00;;;6.50;73.00;;;;;;4120293;28;20409;-82
2022/03/03 05:39:31;;;;;;;0.00;0.00;;;6.60;73.10;;;;;;4120851;28;20129;-76
2022/03/03 05:42:07;;;;;;;0.00;0.00;;;6.50;73.20;;;;;;4133598;28;20043;-76
2022/03/03 05:44:31;;;;;;;0.00;0.00;;;6.50;73.30;;;;;;4147055;28;20042;-73
2022/03/03 05:46:55;;;;;;;0.00;0.00;;;6.50;73.30;;;;;;4133864;28;20053;-74
2022/03/03 05:49:22;;;;;;;0.00;0.00;;;6.50;73.50;;;;;;4106962;28;20047;-78
2022/03/03 05:51:44;;;;;;;0.00;0.00;;;6.50;73.80;;;;;;4133583;28;20062;-75
2022/03/03 05:54:09;;;;;;;0.00;0.00;;;6.50;73.90;;;;;;4117149;28;20101;-78
2022/03/03 05:56:38;;;;;;;0.00;0.00;;;6.40;74.10;;;;;;4119687;28;20046;-75
2022/03/03 05:59:05;;;;;;;0.00;0.00;;;6.30;74.50;;;;;;4133069;28;20050;-74
2022/03/03 06:01:30;;;;;;;0.00;0.00;;;6.30;74.80;;;;;;4132857;28;20057;-74
2022/03/03 06:04:02;;;;;;;0.00;0.00;;;6.20;75.10;;;;;;4133384;28;20101;-76
2022/03/03 06:06:34;;;;;;;0.00;0.00;;;6.20;75.30;;;;;;4119231;28;20054;-79
2022/03/03 06:09:06;;;;;;;0.00;0.00;;;6.30;75.40;;;;;;4107225;28;20047;-76
2022/03/03 06:11:32;;;;;;;0.00;0.00;;;6.20;75.60;;;;;;4133771;28;20054;-73
2022/03/03 06:14:08;;;;;;;0.00;0.00;;;6.20;75.80;;;;;;4120075;28;20050;-75
2022/03/03 06:16:36;;;;;;;0.00;0.00;;;6.10;76.10;;;;;;4119833;28;20047;-73
2022/03/03 06:18:59;;;;;;;0.00;0.00;;;6.10;76.40;;;;;;4133100;28;20113;-73
2022/03/03 06:21:21;;;;;;;0.00;0.00;;;6.00;76.70;;;;;;4119360;28;20047;-75
2022/03/03 06:23:44;;;;;;;0.00;0.00;;;6.00;77.20;;;;;;4119625;28;20043;-77
2022/03/03 06:26:11;;;;;;;0.00;0.00;;;6.10;77.40;;;;;;4118752;28;20097;-79
2022/03/03 06:28:39;;;;;;;0.00;0.00;;;6.10;77.40;;;;;;4119873;28;20081;-76
2022/03/03 06:31:09;;;;;;;0.00;0.00;;;6.20;77.50;;;;;;4132981;28;20112;-75
2022/03/03 06:33:33;;;;;;;0.00;0.00;;;6.20;77.80;;;;;;4119327;28;20136;-72
2022/03/03 06:35:55;;;;;;;0.00;0.00;;;6.20;77.80;;;;;;4119046;28;20101;-76
2022/03/03 06:38:17;;;;;;;0.00;0.00;;;6.40;77.70;;;;;;4118887;28;20073;-78
2022/03/03 06:40:39;;;;;;;0.00;0.00;;;6.50;77.40;;;;;;4132298;28;20038;-74
2022/03/03 06:43:04;;;;;;;0.00;0.00;;;6.60;76.90;;;;;;4105459;28;20052;-73
2022/03/03 06:45:32;;;;;;;0.00;0.00;;;6.80;76.40;;;;;;4132257;28;20112;-76
2022/03/03 06:48:01;;;;;;;0.00;0.00;;;6.80;75.90;;;;;;4118667;28;20047;-73
2022/03/03 06:50:26;;;;;;;0.00;0.00;;;6.70;76.10;;;;;;4132066;28;20050;-75
2022/03/03 06:52:50;;;;;;;0.00;0.00;;;6.70;76.20;;;;;;4119019;28;20070;-76
2022/03/03 06:55:22;;;;;;;0.00;0.00;;;6.80;76.00;;;;;;4116275;28;20051;-74
2022/03/03 06:57:46;;;;;;;0.00;0.00;;;7.00;75.80;;;;;;4129512;28;20050;-74
2022/03/03 07:00:20;;;;;;;0.00;0.00;;;7.10;75.20;;;;;;4118375;28;20507;-77
2022/03/03 07:02:42;;;;;;;0.00;0.00;;;7.10;75.20;;;;;;4118657;28;20050;-73
2022/03/03 07:05:10;;;;;;;0.00;0.00;;;7.10;75.50;;;;;;4132506;28;20393;-73
2022/03/03 07:07:34;;;;;;;0.00;0.00;;;7.00;75.70;;;;;;4132249;28;20112;-75
2022/03/03 07:10:02;;;;;;;0.00;0.00;;;7.10;76.10;;;;;;4132214;28;20049;-75
2022/03/03 07:12:27;;;;;;;0.00;0.00;;;7.30;75.20;;;;;;4118386;28;20177;-73
2022/03/03 07:14:50;;;;;;;0.00;0.00;;;7.30;74.90;;;;;;4118479;28;20055;-75
2022/03/03 07:17:43;;;;;;;0.00;0.00;;;7.40;74.90;;;;;;4132105;28;20579;-76
2022/03/03 07:20:06;;;;;;;0.00;0.00;;;7.80;74.10;;;;;;4118141;28;20050;-73
2022/03/03 07:22:38;;;;;;;0.00;0.00;;;7.90;73.30;;;;;;4118585;28;20047;-76
2022/03/03 07:25:09;;;;;;;0.00;0.00;;;8.10;72.80;;;;;;4132141;28;20144;-78
2022/03/03 07:27:32;;;;;;;0.00;0.00;;;8.50;71.80;;;;;;4118647;28;20475;-74
2022/03/03 07:30:15;;;;;;;0.00;0.00;;;8.70;70.90;;;;;;4131944;28;20046;-75
2022/03/03 07:33:18;;;;;;;0.00;0.00;;;8.90;69.80;;;;;;4144995;28;20069;-74
2022/03/03 07:35:43;;;;;;;0.00;0.00;;;9.10;68.80;;;;;;4118558;28;20069;-76
2022/03/03 07:38:14;;;;;;;0.00;0.00;;;9.10;67.70;;;;;;4115138;28;20377;-75
2022/03/03 07:40:42;;;;;;;0.00;0.00;;;9.10;68.30;;;;;;4118275;28;20074;-77
2022/03/03 07:43:07;;;;;;;0.00;0.00;;;9.30;67.60;;;;;;4117753;28;20397;-77
2022/03/03 07:45:29;;;;;;;0.00;0.00;;;9.20;67.90;;;;;;4118175;28;20061;-75
2022/03/03 07:47:55;;;;;;;0.00;0.00;;;9.20;67.90;;;;;;4118643;28;20065;-76
2022/03/03 07:50:17;;;;;;;0.00;0.00;;;9.60;67.70;;;;;;4117179;28;20057;-77
2022/03/03 07:52:48;;;;;;;0.00;0.00;;;9.70;67.30;;;;;;4131834;28;20055;-75
2022/03/03 07:55:10;;;;;;;0.00;0.00;;;9.90;66.40;;;;;;4121132;28;20047;-76
2022/03/03 07:57:39;;;;;;;0.00;0.00;;;10.10;65.60;;;;;;4135145;28;20102;-75
2022/03/03 08:00:06;;;;;;;0.00;0.00;;;10.40;65.30;;;;;;4134885;28;20050;-75
2022/03/03 08:02:31;;;;;;;0.00;0.00;;;10.40;64.00;;;;;;4148341;28;20045;-76
2022/03/03 08:05:01;;;;;;;0.00;0.00;;;10.70;64.50;;;;;;4121383;28;20155;-74
2022/03/03 08:07:23;;;;;;;0.00;0.00;;;11.20;63.70;;;;;;4121793;28;20085;-72
2022/03/03 08:09:54;;;;;;;0.00;0.00;;;11.10;61.30;;;;;;4121591;28;20046;-74
2022/03/03 08:12:21;;;;;;;0.00;0.00;;;10.60;62.70;;;;;;4134479;28;20496;-75
2022/03/03 08:14:47;;;;;;;0.00;0.00;;;10.80;63.50;;;;;;4134803;28;20113;-75
2022/03/03 08:17:14;;;;;;;0.00;0.00;;;11.10;62.30;;;;;;4134807;28;20109;-74
2022/03/03 08:19:38;;;;;;;0.00;0.00;;;10.70;61.90;;;;;;4134801;28;20109;-75
2022/03/03 08:22:00;;;;;;;0.00;0.00;;;10.30;63.00;;;;;;4121183;28;20156;-74
2022/03/03 08:24:27;;;;;;;0.00;0.00;;;10.30;63.90;;;;;;4134365;28;20651;-76
2022/03/03 08:26:49;;;;;;;0.00;0.00;;;10.90;63.80;;;;;;4134763;28;20058;-76
2022/03/03 08:29:14;;;;;;;0.00;0.00;;;11.50;62.40;;;;;;4134775;28;20453;-73
2022/03/03 08:31:39;;;;;;;0.00;0.00;;;11.90;60.20;;;;;;4134542;28;20050;-74
2022/03/03 08:34:12;;;;;;;0.00;0.00;;;11.80;59.10;;;;;;4134594;28;20078;-73
2022/03/03 08:36:47;;;;;;;0.00;0.00;;;11.10;59.70;;;;;;4134094;28;20051;-74
2022/03/03 08:39:12;;;;;;;0.00;0.00;;;10.50;61.10;;;;;;4107702;28;20043;-74
2022/03/03 08:41:39;;;;;;;0.00;0.00;;;11.00;61.80;;;;;;4134442;28;20053;-74
2022/03/03 08:44:05;;;;;;;0.00;0.00;;;11.90;59.50;;;;;;4120984;28;20058;-74
2022/03/03 08:46:31;;;;;;;0.00;0.00;;;12.20;58.40;;;;;;4120902;28;20057;-76
2022/03/03 08:49:01;;;;;;;0.00;0.00;;;12.10;57.30;;;;;;4134202;28;20043;-74
2022/03/03 08:51:24;;;;;;;0.00;0.00;;;12.20;57.60;;;;;;4134365;28;20433;-79
2022/03/03 08:53:49;;;;;;;0.00;0.00;;;12.30;56.50;;;;;;4120616;28;20109;-75
2022/03/03 08:56:11;;;;;;;0.00;0.00;;;12.60;56.50;;;;;;4118546;28;20426;-75
2022/03/03 08:58:33;;;;;;;0.00;0.00;;;12.60;56.00;;;;;;4134218;28;20093;-77
2022/03/03 09:00:55;;;;;;;0.00;0.00;;;12.50;56.20;;;;;;4134159;28;20104;-75
2022/03/03 09:03:23;;;;;;;0.00;0.00;;;12.30;56.00;;;;;;4134014;28;20046;-74
2022/03/03 09:05:50;;;;;;;0.00;0.00;;;12.30;56.30;;;;;;4133824;28;20386;-77
2022/03/03 09:08:12;;;;;;;0.00;0.00;;;12.60;56.70;;;;;;4105310;28;20155;-75
2022/03/03 09:10:38;;;;;;;0.00;0.00;;;12.90;56.10;;;;;;4134147;28;20054;-76
2022/03/03 09:13:00;;;;;;;0.00;0.00;;;13.10;56.40;;;;;;4134040;28;20054;-77
2022/03/03 09:15:30;;;;;;;0.00;0.00;;;13.20;55.10;;;;;;4120476;28;20063;-75
2022/03/03 09:17:57;;;;;;;0.00;0.00;;;13.00;54.90;;;;;;4121170;28;20062;-75
2022/03/03 09:20:19;;;;;;;0.00;0.00;;;13.00;55.00;;;;;;4120251;28;20380;-76
2022/03/03 09:22:46;;;;;;;0.00;0.00;;;13.00;55.30;;;;;;4120075;28;20046;-74
2022/03/03 09:25:11;;;;;;;0.00;0.00;;;13.20;55.20;;;;;;4133711;28;20069;-75
2022/03/03 09:27:33;;;;;;;0.00;0.00;;;13.10;55.10;;;;;;4133643;28;20504;-77
2022/03/03 09:29:58;;;;;;;0.00;0.00;;;12.60;55.70;;;;;;4120284;28;20453;-74
2022/03/03 09:32:20;;;;;;;0.00;0.00;;;12.10;58.20;;;;;;4119511;28;20544;-73
2022/03/03 09:34:46;;;;;;;0.00;0.00;;;11.70;59.10;;;;;;4120346;28;20046;-74
2022/03/03 09:37:17;;;;;;;0.00;0.00;;;11.90;59.30;;;;;;4133598;28;20098;-75
2022/03/03 09:39:39;;;;;;;0.00;0.00;;;12.20;58.20;;;;;;4119838;28;20043;-73
2022/03/03 09:42:04;;;;;;;0.00;0.00;;;11.90;58.70;;;;;;4133691;28;20081;-74
2022/03/03 09:44:31;;;;;;;0.00;0.00;;;12.20;59.20;;;;;;4119639;28;20043;-74
2022/03/03 09:46:55;;;;;;;0.00;0.00;;;12.60;56.90;;;;;;4133785;28;20101;-75
2022/03/03 09:49:18;;;;;;;0.00;0.00;;;12.80;54.30;;;;;;4120051;28;20385;-75
2022/03/03 09:51:40;;;;;;;0.00;0.00;;;13.00;53.70;;;;;;4119765;28;20043;-73
2022/03/03 09:54:09;;;;;;;0.00;0.00;;;13.50;52.90;;;;;;4119831;28;20702;-75
2022/03/03 09:56:34;;;;;;;0.00;0.00;;;13.80;51.80;;;;;;4132888;28;20125;-75
2022/03/03 09:58:56;;;;;;;0.00;0.00;;;13.80;52.40;;;;;;4133329;28;20039;-74
2022/03/03 10:01:21;;;;;;;0.00;0.00;;;13.20;54.50;;;;;;4119755;28;20054;-75
2022/03/03 10:03:47;;;;;;;0.00;0.00;;;12.70;55.70;;;;;;4119532;28;20060;-73
2022/03/03 10:06:14;;;;;;;0.00;0.00;;;12.70;56.00;;;;;;4132738;28;20346;-76
2022/03/03 10:08:39;;;;;;;0.00;0.00;;;12.80;54.80;;;;;;4119629;28;20039;-74
2022/03/03 10:11:03;;;;;;;0.00;0.00;;;13.10;55.00;;;;;;4133022;28;20050;-73
2022/03/03 10:13:43;;;;;;;0.00;0.00;;;13.90;53.80;;;;;;4133034;28;20054;-75
2022/03/03 10:16:09;;;;;;;0.00;0.00;;;14.30;52.60;;;;;;4116724;28;20110;-75
2022/03/03 10:18:31;;;;;;;0.00;0.00;;;15.40;52.00;;;;;;4106122;28;20061;-74
2022/03/03 10:20:58;;;;;;;0.00;0.00;;;16.20;50.40;;;;;;4106222;28;20070;-74
2022/03/03 10:23:27;;;;;;;0.00;0.00;;;16.30;47.80;;;;;;4132810;28;20515;-75
2022/03/03 10:25:55;;;;;;;0.00;0.00;;;15.50;48.20;;;;;;4132819;28;20046;-73
2022/03/03 10:28:19;;;;;;;0.00;0.00;;;15.80;48.80;;;;;;4132503;28;20117;-76
2022/03/03 10:31:04;;;;;;;0.00;0.00;;;15.70;49.40;;;;;;4119226;28;20054;-77
2022/03/03 10:33:29;;;;;;;0.00;0.00;;;16.50;48.20;;;;;;4119139;28;20101;-75
2022/03/03 10:36:26;;;;;;;0.00;0.00;;;16.60;47.70;;;;;;4119198;28;20042;-74
2022/03/03 10:38:50;;;;;;;0.00;0.00;;;17.30;45.10;;;;;;4121373;28;20129;-75
2022/03/03 10:41:30;;;;;;;0.00;0.00;;;16.00;46.60;;;;;;4119193;28;20054;-75
2022/03/03 10:43:52;;;;;;;0.00;0.00;;;16.00;48.10;;;;;;4132557;28;20129;-75
2022/03/03 10:46:14;;;;;;;0.00;0.00;;;16.40;48.00;;;;;;4118742;28;20042;-74
2022/03/03 10:48:40;;;;;;;0.00;0.00;;;17.20;47.60;;;;;;4132664;28;20042;-74
2022/03/03 10:51:19;;;;;;;0.00;0.00;;;18.00;46.20;;;;;;4132797;28;20492;-77
2022/03/03 10:53:43;;;;;;;0.00;0.00;;;18.70;45.00;;;;;;4132563;28;20050;-75
2022/03/03 10:56:12;;;;;;;0.00;0.00;;;19.30;44.30;;;;;;4114163;28;20055;-74
2022/03/03 10:58:52;;;;;;;0.00;0.00;;;19.90;43.00;;;;;;4118916;28;20105;-74
2022/03/03 11:01:19;;;;;;;0.00;0.00;;;20.30;42.10;;;;;;4118743;28;20051;-76
2022/03/03 11:03:49;;;;;;;0.00;0.00;;;20.80;40.50;;;;;;4119340;28;20073;-77
2022/03/03 11:06:15;;;;;;;0.00;0.00;;;21.10;38.90;;;;;;4131894;28;20070;-76
2022/03/03 11:08:37;;;;;;;0.00;0.00;;;21.30;37.60;;;;;;4118699;28;20047;-75
2022/03/03 11:11:01;;;;;;;0.00;0.00;;;19.90;37.10;;;;;;4132247;28;20129;-77
2022/03/03 11:13:30;;;;;;;0.00;0.00;;;19.80;38.50;;;;;;4132051;28;20058;-76
2022/03/03 11:16:17;;;;;;;0.00;0.00;;;20.10;37.20;;;;;;4118654;28;20109;-77
2022/03/03 11:18:46;;;;;;;0.00;0.00;;;19.30;37.90;;;;;;4105247;28;20101;-76
2022/03/03 11:21:19;;;;;;;0.00;0.00;;;19.80;37.20;;;;;;4119353;28;20050;-76
2022/03/03 11:23:45;;;;;;;0.00;0.00;;;19.10;37.50;;;;;;4132012;28;20042;-76
2022/03/03 11:26:11;;;;;;;0.00;0.00;;;20.00;37.40;;;;;;4102166;28;20055;-78
2022/03/03 11:28:37;;;;;;;0.00;0.00;;;20.70;36.10;;;;;;4131373;28;20068;-76
2022/03/03 11:31:31;;;;;;;0.00;0.00;;;21.50;35.80;;;;;;4132510;28;20495;-76
2022/03/03 11:34:18;;;;;;;0.00;0.00;;;22.10;34.70;;;;;;4131951;28;20116;-76
2022/03/03 11:36:45;;;;;;;0.00;0.00;;;21.90;34.30;;;;;;4131471;28;20038;-75
2022/03/03 11:39:10;;;;;;;0.00;0.00;;;22.20;34.60;;;;;;4118407;28;20056;-76
2022/03/03 11:41:52;;;;;;;0.00;0.00;;;22.20;34.40;;;;;;4105073;28;20047;-76
2022/03/03 11:44:15;;;;;;;0.00;0.00;;;22.00;34.90;;;;;;4118195;28;20121;-74
2022/03/03 11:46:51;;;;;;;0.00;0.00;;;21.80;35.20;;;;;;4118467;28;20374;-78
2022/03/03 11:49:25;;;;;;;0.00;0.00;;;22.00;35.60;;;;;;4118890;28;20082;-74
2022/03/03 11:52:10;;;;;;;0.00;0.00;;;22.10;35.70;;;;;;4132051;28;20066;-75
2022/03/03 11:54:33;;;;;;;0.00;0.00;;;21.70;36.00;;;;;;4131167;28;20393;-75
2022/03/03 11:57:04;;;;;;;0.00;0.00;;;21.80;36.00;;;;;;4105145;28;20508;-73
2022/03/03 11:59:47;;;;;;;0.00;0.00;;;21.50;35.20;;;;;;4118800;28;20133;-75
2022/03/03 12:02:12;;;;;;;0.00;0.00;;;21.60;35.70;;;;;;4131668;28;20065;-76
2022/03/03 12:04:34;;;;;;;0.00;0.00;;;21.70;34.50;;;;;;4119148;28;20504;-75
2022/03/03 12:06:56;;;;;;;0.00;0.00;;;22.00;33.80;;;;;;4118393;28;20114;-76
2022/03/03 12:09:24;;;;;;;0.00;0.00;;;22.40;33.30;;;;;;4118243;28;20057;-73
2022/03/03 12:11:49;;;;;;;0.00;0.00;;;21.90;33.40;;;;;;4131568;28;20057;-76
2022/03/03 12:14:32;;;;;;;0.00;0.00;;;22.30;32.70;;;;;;4131135;28;20429;-76
2022/03/03 12:16:55;;;;;;;0.00;0.00;;;22.90;32.50;;;;;;4131717;28;20790;-73
2022/03/03 12:19:35;;;;;;;0.00;0.00;;;22.80;32.20;;;;;;4118372;28;20057;-75
2022/03/03 12:22:01;;;;;;;0.00;0.00;;;23.10;31.70;;;;;;4118282;28;20110;-73
2022/03/03 12:24:28;;;;;;;0.00;0.00;;;23.00;31.70;;;;;;4131346;28;20042;-76
2022/03/03 12:26:56;;;;;;;0.00;0.00;;;22.80;32.20;;;;;;4118069;28;20042;-74
2022/03/03 12:29:39;;;;;;;0.00;0.00;;;22.80;32.00;;;;;;4131801;28;20057;-76
2022/03/03 12:32:38;;;;;;;0.00;0.00;;;23.10;31.70;;;;;;4131190;28;20097;-77
2022/03/03 12:35:01;;;;;;;0.00;0.00;;;23.00;31.90;;;;;;4118075;28;20053;-74
2022/03/03 12:37:32;;;;;;;0.00;0.00;;;22.90;31.50;;;;;;4131821;28;20053;-78
2022/03/03 12:40:03;;;;;;;0.00;0.00;;;22.80;32.10;;;;;;4132379;28;20054;-76
2022/03/03 12:42:30;;;;;;;0.00;0.00;;;23.00;31.90;;;;;;4107851;28;20448;-75
2022/03/03 12:45:07;;;;;;;0.00;0.00;;;23.60;31.80;;;;;;4134436;28;20085;-76
2022/03/03 12:47:36;;;;;;;0.00;0.00;;;24.00;31.70;;;;;;4134569;28;20136;-74
2022/03/03 12:50:13;;;;;;;0.00;0.00;;;23.90;31.50;;;;;;4121991;28;20077;-77
2022/03/03 12:52:37;;;;;;;0.00;0.00;;;24.00;31.30;;;;;;4134102;28;20050;-74
2022/03/03 12:55:03;;;;;;;0.00;0.00;;;23.70;31.00;;;;;;4120656;28;20047;-75
2022/03/03 12:57:34;;;;;;;0.00;0.00;;;23.80;31.70;;;;;;4134201;28;20551;-75